sensor_id;sensor_type;location;lat;lon;timestamp;P1;durP1;ratioP1;P2;durP2;ratioP2
12141;SDS011;6134;59.284;18.022;2023-02-28T00:01:40;2.22;;;0.90;;
12141;SDS011;6134;59.284;18.022;2023-02-28T00:04:09;1.00;;;0.90;;
12141;SDS011;6134;59.284;18.022;2023-02-28T00:06:38;1.20;;;1.00;;
12141;SDS011;6134;59.284;18.022;2023-02-28T00:09:08;1.30;;;0.90;;
12141;SDS011;6134;59.284;18.022;2023-02-28T00:11:37;1.50;;;1.08;;
12141;SDS011;6134;59.284;18.022;2023-02-28T00:14:05;1.25;;;1.05;;
12141;SDS011;6134;59.284;18.022;2023-02-28T00:16:34;1.25;;;0.90;;
12141;SDS011;6134;59.284;18.022;2023-02-28T00:19:04;0.82;;;0.82;;
12141;SDS011;6134;59.284;18.022;2023-02-28T00:21:33;1.08;;;1.00;;
12141;SDS011;6134;59.284;18.022;2023-02-28T00:24:02;1.80;;;0.98;;
12141;SDS011;6134;59.284;18.022;2023-02-28T00:26:31;1.20;;;1.10;;
12141;SDS011;6134;59.284;18.022;2023-02-28T00:29:00;1.27;;;0.70;;
12141;SDS011;6134;59.284;18.022;2023-02-28T00:31:29;1.13;;;0.90;;
12141;SDS011;6134;59.284;18.022;2023-02-28T00:33:57;1.08;;;0.90;;
12141;SDS011;6134;59.284;18.022;2023-02-28T00:36:28;0.70;;;0.70;;
12141;SDS011;6134;59.284;18.022;2023-02-28T00:38:57;0.68;;;0.68;;
12141;SDS011;6134;59.284;18.022;2023-02-28T00:41:27;1.17;;;0.80;;
12141;SDS011;6134;59.284;18.022;2023-02-28T00:43:56;0.70;;;0.70;;
12141;SDS011;6134;59.284;18.022;2023-02-28T00:46:25;1.20;;;0.90;;
12141;SDS011;6134;59.284;18.022;2023-02-28T00:48:53;0.80;;;0.70;;
12141;SDS011;6134;59.284;18.022;2023-02-28T00:51:22;1.10;;;0.63;;
12141;SDS011;6134;59.284;18.022;2023-02-28T00:53:52;1.00;;;0.80;;
12141;SDS011;6134;59.284;18.022;2023-02-28T00:56:22;0.70;;;0.70;;
12141;SDS011;6134;59.284;18.022;2023-02-28T00:58:51;3.17;;;1.20;;
12141;SDS011;6134;59.284;18.022;2023-02-28T01:01:20;1.70;;;1.35;;
12141;SDS011;6134;59.284;18.022;2023-02-28T01:03:49;2.40;;;1.30;;
12141;SDS011;6134;59.284;18.022;2023-02-28T01:06:18;1.02;;;0.90;;
12141;SDS011;6134;59.284;18.022;2023-02-28T01:08:46;0.57;;;0.57;;
12141;SDS011;6134;59.284;18.022;2023-02-28T01:11:17;0.77;;;0.77;;
12141;SDS011;6134;59.284;18.022;2023-02-28T01:13:46;0.70;;;0.70;;
12141;SDS011;6134;59.284;18.022;2023-02-28T01:16:15;1.73;;;0.80;;
12141;SDS011;6134;59.284;18.022;2023-02-28T01:18:44;2.45;;;0.80;;
12141;SDS011;6134;59.284;18.022;2023-02-28T01:21:14;1.67;;;0.90;;
12141;SDS011;6134;59.284;18.022;2023-02-28T01:23:43;1.13;;;1.00;;
12141;SDS011;6134;59.284;18.022;2023-02-28T01:26:13;0.95;;;0.75;;
12141;SDS011;6134;59.284;18.022;2023-02-28T01:28:44;1.05;;;0.95;;
12141;SDS011;6134;59.284;18.022;2023-02-28T01:31:13;0.95;;;0.85;;
12141;SDS011;6134;59.284;18.022;2023-02-28T01:33:42;1.08;;;0.82;;
12141;SDS011;6134;59.284;18.022;2023-02-28T01:36:11;1.38;;;1.05;;
12141;SDS011;6134;59.284;18.022;2023-02-28T01:38:41;2.35;;;0.80;;
12141;SDS011;6134;59.284;18.022;2023-02-28T01:41:12;1.10;;;1.00;;
12141;SDS011;6134;59.284;18.022;2023-02-28T01:43:54;1.08;;;0.90;;
12141;SDS011;6134;59.284;18.022;2023-02-28T01:46:23;1.00;;;0.90;;
12141;SDS011;6134;59.284;18.022;2023-02-28T01:48:53;0.75;;;0.75;;
12141;SDS011;6134;59.284;18.022;2023-02-28T01:51:24;0.80;;;0.80;;
12141;SDS011;6134;59.284;18.022;2023-02-28T01:53:56;0.77;;;0.65;;
12141;SDS011;6134;59.284;18.022;2023-02-28T01:56:26;1.52;;;0.70;;
12141;SDS011;6134;59.284;18.022;2023-02-28T01:58:59;1.58;;;0.80;;
12141;SDS011;6134;59.284;18.022;2023-02-28T02:01:28;0.90;;;0.80;;
12141;SDS011;6134;59.284;18.022;2023-02-28T02:04:01;0.77;;;0.77;;
12141;SDS011;6134;59.284;18.022;2023-02-28T02:06:31;1.23;;;0.70;;
12141;SDS011;6134;59.284;18.022;2023-02-28T02:09:02;0.63;;;0.52;;
12141;SDS011;6134;59.284;18.022;2023-02-28T02:11:31;0.93;;;0.70;;
12141;SDS011;6134;59.284;18.022;2023-02-28T02:14:06;0.60;;;0.60;;
12141;SDS011;6134;59.284;18.022;2023-02-28T02:16:40;0.90;;;0.60;;
12141;SDS011;6134;59.284;18.022;2023-02-28T02:19:15;0.73;;;0.60;;
12141;SDS011;6134;59.284;18.022;2023-02-28T02:21:56;0.68;;;0.60;;
12141;SDS011;6134;59.284;18.022;2023-02-28T02:27:20;0.80;;;0.70;;
12141;SDS011;6134;59.284;18.022;2023-02-28T02:35:19;0.73;;;0.60;;
12141;SDS011;6134;59.284;18.022;2023-02-28T02:37:55;0.60;;;0.60;;
12141;SDS011;6134;59.284;18.022;2023-02-28T02:40:27;0.50;;;0.50;;
12141;SDS011;6134;59.284;18.022;2023-02-28T02:42:59;1.17;;;0.70;;
12141;SDS011;6134;59.284;18.022;2023-02-28T02:45:31;0.60;;;0.60;;
12141;SDS011;6134;59.284;18.022;2023-02-28T02:48:03;0.47;;;0.45;;
12141;SDS011;6134;59.284;18.022;2023-02-28T02:50:34;0.60;;;0.60;;
12141;SDS011;6134;59.284;18.022;2023-02-28T02:53:05;0.60;;;0.60;;
12141;SDS011;6134;59.284;18.022;2023-02-28T02:55:36;0.82;;;0.80;;
12141;SDS011;6134;59.284;18.022;2023-02-28T02:58:08;0.50;;;0.50;;
12141;SDS011;6134;59.284;18.022;2023-02-28T03:00:39;0.60;;;0.60;;
12141;SDS011;6134;59.284;18.022;2023-02-28T03:03:09;0.75;;;0.70;;
12141;SDS011;6134;59.284;18.022;2023-02-28T03:05:41;0.60;;;0.60;;
12141;SDS011;6134;59.284;18.022;2023-02-28T03:08:11;0.60;;;0.60;;
12141;SDS011;6134;59.284;18.022;2023-02-28T03:10:40;0.68;;;0.63;;
12141;SDS011;6134;59.284;18.022;2023-02-28T03:13:22;0.50;;;0.50;;
12141;SDS011;6134;59.284;18.022;2023-02-28T03:15:58;0.60;;;0.60;;
12141;SDS011;6134;59.284;18.022;2023-02-28T03:18:32;0.60;;;0.60;;
12141;SDS011;6134;59.284;18.022;2023-02-28T03:21:06;0.70;;;0.60;;
12141;SDS011;6134;59.284;18.022;2023-02-28T03:23:41;1.05;;;0.70;;
12141;SDS011;6134;59.284;18.022;2023-02-28T03:26:12;0.90;;;0.80;;
12141;SDS011;6134;59.284;18.022;2023-02-28T03:28:43;0.60;;;0.60;;
12141;SDS011;6134;59.284;18.022;2023-02-28T03:31:15;0.50;;;0.50;;
12141;SDS011;6134;59.284;18.022;2023-02-28T03:33:46;0.50;;;0.50;;
12141;SDS011;6134;59.284;18.022;2023-02-28T03:36:23;0.55;;;0.55;;
12141;SDS011;6134;59.284;18.022;2023-02-28T03:38:56;0.60;;;0.60;;
12141;SDS011;6134;59.284;18.022;2023-02-28T03:41:30;0.60;;;0.50;;
12141;SDS011;6134;59.284;18.022;2023-02-28T03:44:00;0.50;;;0.50;;
12141;SDS011;6134;59.284;18.022;2023-02-28T03:46:32;1.48;;;0.63;;
12141;SDS011;6134;59.284;18.022;2023-02-28T03:49:03;0.77;;;0.77;;
12141;SDS011;6134;59.284;18.022;2023-02-28T03:51:36;1.25;;;0.57;;
12141;SDS011;6134;59.284;18.022;2023-02-28T03:54:08;0.65;;;0.60;;
12141;SDS011;6134;59.284;18.022;2023-02-28T03:56:38;0.52;;;0.52;;
12141;SDS011;6134;59.284;18.022;2023-02-28T03:59:09;0.50;;;0.50;;
12141;SDS011;6134;59.284;18.022;2023-02-28T04:01:41;0.50;;;0.50;;
12141;SDS011;6134;59.284;18.022;2023-02-28T04:04:11;0.60;;;0.60;;
12141;SDS011;6134;59.284;18.022;2023-02-28T04:06:42;0.63;;;0.63;;
12141;SDS011;6134;59.284;18.022;2023-02-28T04:09:11;1.00;;;0.60;;
12141;SDS011;6134;59.284;18.022;2023-02-28T04:11:41;0.52;;;0.52;;
12141;SDS011;6134;59.284;18.022;2023-02-28T04:14:11;0.47;;;0.47;;
12141;SDS011;6134;59.284;18.022;2023-02-28T04:16:40;0.82;;;0.75;;
12141;SDS011;6134;59.284;18.022;2023-02-28T04:19:10;0.45;;;0.45;;
12141;SDS011;6134;59.284;18.022;2023-02-28T04:21:40;0.50;;;0.50;;
12141;SDS011;6134;59.284;18.022;2023-02-28T04:24:11;0.65;;;0.50;;
12141;SDS011;6134;59.284;18.022;2023-02-28T04:26:41;0.88;;;0.70;;
12141;SDS011;6134;59.284;18.022;2023-02-28T04:29:11;0.50;;;0.50;;
12141;SDS011;6134;59.284;18.022;2023-02-28T04:31:40;0.57;;;0.52;;
12141;SDS011;6134;59.284;18.022;2023-02-28T04:34:09;1.20;;;0.60;;
12141;SDS011;6134;59.284;18.022;2023-02-28T04:36:38;0.80;;;0.60;;
12141;SDS011;6134;59.284;18.022;2023-02-28T04:39:06;0.68;;;0.68;;
12141;SDS011;6134;59.284;18.022;2023-02-28T04:41:37;0.50;;;0.50;;
12141;SDS011;6134;59.284;18.022;2023-02-28T04:44:06;0.47;;;0.47;;
12141;SDS011;6134;59.284;18.022;2023-02-28T04:46:34;0.73;;;0.52;;
12141;SDS011;6134;59.284;18.022;2023-02-28T04:49:03;1.02;;;0.70;;
12141;SDS011;6134;59.284;18.022;2023-02-28T04:51:32;1.55;;;0.88;;
12141;SDS011;6134;59.284;18.022;2023-02-28T04:54:01;1.40;;;0.65;;
12141;SDS011;6134;59.284;18.022;2023-02-28T04:56:29;0.77;;;0.70;;
12141;SDS011;6134;59.284;18.022;2023-02-28T04:58:59;0.55;;;0.55;;
12141;SDS011;6134;59.284;18.022;2023-02-28T05:01:29;0.60;;;0.60;;
12141;SDS011;6134;59.284;18.022;2023-02-28T05:04:00;0.52;;;0.52;;
12141;SDS011;6134;59.284;18.022;2023-02-28T05:06:31;0.70;;;0.70;;
12141;SDS011;6134;59.284;18.022;2023-02-28T05:09:00;0.60;;;0.60;;
12141;SDS011;6134;59.284;18.022;2023-02-28T05:11:30;3.58;;;1.05;;
12141;SDS011;6134;59.284;18.022;2023-02-28T05:14:03;1.35;;;0.55;;
12141;SDS011;6134;59.284;18.022;2023-02-28T05:16:32;0.57;;;0.57;;
12141;SDS011;6134;59.284;18.022;2023-02-28T05:19:03;0.60;;;0.60;;
12141;SDS011;6134;59.284;18.022;2023-02-28T05:21:32;0.50;;;0.50;;
12141;SDS011;6134;59.284;18.022;2023-02-28T05:24:02;2.03;;;0.60;;
12141;SDS011;6134;59.284;18.022;2023-02-28T05:26:33;0.90;;;0.60;;
12141;SDS011;6134;59.284;18.022;2023-02-28T05:29:03;0.50;;;0.50;;
12141;SDS011;6134;59.284;18.022;2023-02-28T05:31:32;0.80;;;0.68;;
12141;SDS011;6134;59.284;18.022;2023-02-28T05:34:01;1.10;;;0.60;;
12141;SDS011;6134;59.284;18.022;2023-02-28T05:36:31;0.77;;;0.70;;
12141;SDS011;6134;59.284;18.022;2023-02-28T05:38:59;0.63;;;0.52;;
12141;SDS011;6134;59.284;18.022;2023-02-28T05:41:29;0.65;;;0.60;;
12141;SDS011;6134;59.284;18.022;2023-02-28T05:43:58;1.00;;;0.70;;
12141;SDS011;6134;59.284;18.022;2023-02-28T05:46:29;1.23;;;1.08;;
12141;SDS011;6134;59.284;18.022;2023-02-28T05:48:57;1.33;;;0.70;;
12141;SDS011;6134;59.284;18.022;2023-02-28T05:51:27;0.52;;;0.52;;
12141;SDS011;6134;59.284;18.022;2023-02-28T05:54:00;0.77;;;0.60;;
12141;SDS011;6134;59.284;18.022;2023-02-28T05:56:29;1.20;;;1.10;;
12141;SDS011;6134;59.284;18.022;2023-02-28T05:58:57;0.50;;;0.50;;
12141;SDS011;6134;59.284;18.022;2023-02-28T06:01:32;0.65;;;0.60;;
12141;SDS011;6134;59.284;18.022;2023-02-28T06:04:01;3.03;;;0.70;;
12141;SDS011;6134;59.284;18.022;2023-02-28T06:06:30;1.00;;;0.60;;
12141;SDS011;6134;59.284;18.022;2023-02-28T06:09:02;0.68;;;0.68;;
12141;SDS011;6134;59.284;18.022;2023-02-28T06:11:32;0.40;;;0.40;;
12141;SDS011;6134;59.284;18.022;2023-02-28T06:14:01;0.63;;;0.63;;
12141;SDS011;6134;59.284;18.022;2023-02-28T06:16:32;0.95;;;0.77;;
12141;SDS011;6134;59.284;18.022;2023-02-28T06:19:02;0.57;;;0.57;;
12141;SDS011;6134;59.284;18.022;2023-02-28T06:21:31;0.77;;;0.70;;
12141;SDS011;6134;59.284;18.022;2023-02-28T06:24:00;0.73;;;0.73;;
12141;SDS011;6134;59.284;18.022;2023-02-28T06:26:29;0.60;;;0.50;;
12141;SDS011;6134;59.284;18.022;2023-02-28T06:28:58;0.60;;;0.60;;
12141;SDS011;6134;59.284;18.022;2023-02-28T06:31:27;0.50;;;0.50;;
12141;SDS011;6134;59.284;18.022;2023-02-28T06:33:58;1.38;;;0.70;;
12141;SDS011;6134;59.284;18.022;2023-02-28T06:36:26;0.50;;;0.50;;
12141;SDS011;6134;59.284;18.022;2023-02-28T06:38:55;0.90;;;0.70;;
12141;SDS011;6134;59.284;18.022;2023-02-28T06:41:25;0.80;;;0.60;;
12141;SDS011;6134;59.284;18.022;2023-02-28T06:43:55;0.73;;;0.60;;
12141;SDS011;6134;59.284;18.022;2023-02-28T06:46:23;1.25;;;0.60;;
12141;SDS011;6134;59.284;18.022;2023-02-28T06:48:52;0.60;;;0.60;;
12141;SDS011;6134;59.284;18.022;2023-02-28T06:51:22;0.75;;;0.60;;
12141;SDS011;6134;59.284;18.022;2023-02-28T06:53:51;0.68;;;0.60;;
12141;SDS011;6134;59.284;18.022;2023-02-28T06:56:20;0.50;;;0.50;;
12141;SDS011;6134;59.284;18.022;2023-02-28T06:58:49;1.63;;;0.70;;
12141;SDS011;6134;59.284;18.022;2023-02-28T07:01:19;0.50;;;0.50;;
12141;SDS011;6134;59.284;18.022;2023-02-28T07:03:49;0.52;;;0.50;;
12141;SDS011;6134;59.284;18.022;2023-02-28T07:06:19;0.52;;;0.50;;
12141;SDS011;6134;59.284;18.022;2023-02-28T07:08:50;0.60;;;0.60;;
12141;SDS011;6134;59.284;18.022;2023-02-28T07:11:19;1.10;;;0.63;;
12141;SDS011;6134;59.284;18.022;2023-02-28T07:13:49;0.60;;;0.60;;
12141;SDS011;6134;59.284;18.022;2023-02-28T07:16:18;0.60;;;0.60;;
12141;SDS011;6134;59.284;18.022;2023-02-28T07:18:47;0.50;;;0.50;;
12141;SDS011;6134;59.284;18.022;2023-02-28T07:21:15;0.40;;;0.40;;
12141;SDS011;6134;59.284;18.022;2023-02-28T07:23:46;0.80;;;0.73;;
12141;SDS011;6134;59.284;18.022;2023-02-28T07:26:16;0.68;;;0.60;;
12141;SDS011;6134;59.284;18.022;2023-02-28T07:28:46;0.68;;;0.68;;
12141;SDS011;6134;59.284;18.022;2023-02-28T07:31:15;1.30;;;0.50;;
12141;SDS011;6134;59.284;18.022;2023-02-28T07:33:45;0.80;;;0.57;;
12141;SDS011;6134;59.284;18.022;2023-02-28T07:36:14;0.47;;;0.47;;
12141;SDS011;6134;59.284;18.022;2023-02-28T07:38:44;0.43;;;0.43;;
12141;SDS011;6134;59.284;18.022;2023-02-28T07:41:16;0.60;;;0.50;;
12141;SDS011;6134;59.284;18.022;2023-02-28T07:43:45;1.08;;;0.43;;
12141;SDS011;6134;59.284;18.022;2023-02-28T07:46:15;0.70;;;0.70;;
12141;SDS011;6134;59.284;18.022;2023-02-28T07:48:44;2.05;;;0.40;;
12141;SDS011;6134;59.284;18.022;2023-02-28T07:51:13;0.75;;;0.60;;
12141;SDS011;6134;59.284;18.022;2023-02-28T07:53:42;0.63;;;0.50;;
12141;SDS011;6134;59.284;18.022;2023-02-28T07:56:10;0.40;;;0.40;;
12141;SDS011;6134;59.284;18.022;2023-02-28T07:58:41;0.40;;;0.40;;
12141;SDS011;6134;59.284;18.022;2023-02-28T08:01:10;0.93;;;0.50;;
12141;SDS011;6134;59.284;18.022;2023-02-28T08:03:39;0.60;;;0.60;;
12141;SDS011;6134;59.284;18.022;2023-02-28T08:06:14;0.68;;;0.60;;
12141;SDS011;6134;59.284;18.022;2023-02-28T08:08:44;0.50;;;0.50;;
12141;SDS011;6134;59.284;18.022;2023-02-28T08:11:12;0.55;;;0.55;;
12141;SDS011;6134;59.284;18.022;2023-02-28T08:13:45;0.50;;;0.50;;
12141;SDS011;6134;59.284;18.022;2023-02-28T08:16:14;0.70;;;0.70;;
12141;SDS011;6134;59.284;18.022;2023-02-28T08:18:48;0.57;;;0.52;;
12141;SDS011;6134;59.284;18.022;2023-02-28T08:21:17;0.68;;;0.38;;
12141;SDS011;6134;59.284;18.022;2023-02-28T08:23:46;0.55;;;0.52;;
12141;SDS011;6134;59.284;18.022;2023-02-28T08:26:15;0.77;;;0.50;;
12141;SDS011;6134;59.284;18.022;2023-02-28T08:28:46;0.80;;;0.60;;
12141;SDS011;6134;59.284;18.022;2023-02-28T08:31:17;0.88;;;0.50;;
12141;SDS011;6134;59.284;18.022;2023-02-28T08:33:46;0.50;;;0.50;;
12141;SDS011;6134;59.284;18.022;2023-02-28T08:36:18;0.40;;;0.40;;
12141;SDS011;6134;59.284;18.022;2023-02-28T08:38:47;0.50;;;0.50;;
12141;SDS011;6134;59.284;18.022;2023-02-28T08:41:16;0.70;;;0.50;;
12141;SDS011;6134;59.284;18.022;2023-02-28T08:43:46;0.50;;;0.50;;
12141;SDS011;6134;59.284;18.022;2023-02-28T08:46:16;0.40;;;0.40;;
12141;SDS011;6134;59.284;18.022;2023-02-28T08:48:45;1.73;;;0.52;;
12141;SDS011;6134;59.284;18.022;2023-02-28T08:51:16;0.43;;;0.43;;
12141;SDS011;6134;59.284;18.022;2023-02-28T08:53:53;0.47;;;0.47;;
12141;SDS011;6134;59.284;18.022;2023-02-28T08:56:22;2.00;;;0.60;;
12141;SDS011;6134;59.284;18.022;2023-02-28T08:58:53;0.40;;;0.40;;
12141;SDS011;6134;59.284;18.022;2023-02-28T09:01:23;0.60;;;0.60;;
12141;SDS011;6134;59.284;18.022;2023-02-28T09:03:54;0.45;;;0.43;;
12141;SDS011;6134;59.284;18.022;2023-02-28T09:06:25;0.90;;;0.50;;
12141;SDS011;6134;59.284;18.022;2023-02-28T09:08:55;0.40;;;0.40;;
12141;SDS011;6134;59.284;18.022;2023-02-28T09:11:25;0.45;;;0.43;;
12141;SDS011;6134;59.284;18.022;2023-02-28T09:13:56;0.45;;;0.45;;
12141;SDS011;6134;59.284;18.022;2023-02-28T09:16:26;0.35;;;0.35;;
12141;SDS011;6134;59.284;18.022;2023-02-28T09:18:55;0.38;;;0.38;;
12141;SDS011;6134;59.284;18.022;2023-02-28T09:21:24;0.40;;;0.40;;
12141;SDS011;6134;59.284;18.022;2023-02-28T09:23:53;1.70;;;0.60;;
12141;SDS011;6134;59.284;18.022;2023-02-28T09:26:22;3.90;;;0.50;;
12141;SDS011;6134;59.284;18.022;2023-02-28T09:28:53;0.40;;;0.38;;
12141;SDS011;6134;59.284;18.022;2023-02-28T09:31:24;1.05;;;0.50;;
12141;SDS011;6134;59.284;18.022;2023-02-28T09:33:55;0.65;;;0.40;;
12141;SDS011;6134;59.284;18.022;2023-02-28T09:36:24;0.77;;;0.50;;
12141;SDS011;6134;59.284;18.022;2023-02-28T09:39:09;0.50;;;0.40;;
12141;SDS011;6134;59.284;18.022;2023-02-28T09:41:39;1.77;;;0.65;;
12141;SDS011;6134;59.284;18.022;2023-02-28T09:44:17;0.65;;;0.50;;
12141;SDS011;6134;59.284;18.022;2023-02-28T09:46:50;0.45;;;0.40;;
12141;SDS011;6134;59.284;18.022;2023-02-28T09:49:22;1.48;;;0.40;;
12141;SDS011;6134;59.284;18.022;2023-02-28T09:51:52;0.63;;;0.60;;
12141;SDS011;6134;59.284;18.022;2023-02-28T09:54:24;1.45;;;0.50;;
12141;SDS011;6134;59.284;18.022;2023-02-28T09:56:53;0.38;;;0.38;;
12141;SDS011;6134;59.284;18.022;2023-02-28T09:59:29;0.73;;;0.73;;
12141;SDS011;6134;59.284;18.022;2023-02-28T10:02:03;1.00;;;0.75;;
12141;SDS011;6134;59.284;18.022;2023-02-28T10:04:36;0.45;;;0.40;;
12141;SDS011;6134;59.284;18.022;2023-02-28T10:07:13;1.17;;;0.50;;
12141;SDS011;6134;59.284;18.022;2023-02-28T10:09:46;0.60;;;0.50;;
12141;SDS011;6134;59.284;18.022;2023-02-28T10:12:17;0.65;;;0.43;;
12141;SDS011;6134;59.284;18.022;2023-02-28T10:14:51;0.57;;;0.50;;
12141;SDS011;6134;59.284;18.022;2023-02-28T10:17:23;0.57;;;0.57;;
12141;SDS011;6134;59.284;18.022;2023-02-28T10:19:56;0.63;;;0.40;;
12141;SDS011;6134;59.284;18.022;2023-02-28T10:22:27;1.30;;;0.40;;
12141;SDS011;6134;59.284;18.022;2023-02-28T10:24:57;0.63;;;0.30;;
12141;SDS011;6134;59.284;18.022;2023-02-28T10:27:32;1.25;;;0.60;;
12141;SDS011;6134;59.284;18.022;2023-02-28T10:30:01;0.43;;;0.43;;
12141;SDS011;6134;59.284;18.022;2023-02-28T10:32:32;1.10;;;0.45;;
12141;SDS011;6134;59.284;18.022;2023-02-28T10:35:09;0.80;;;0.70;;
12141;SDS011;6134;59.284;18.022;2023-02-28T10:37:39;1.38;;;0.40;;
12141;SDS011;6134;59.284;18.022;2023-02-28T10:40:11;0.45;;;0.45;;
12141;SDS011;6134;59.284;18.022;2023-02-28T10:42:57;0.50;;;0.50;;
12141;SDS011;6134;59.284;18.022;2023-02-28T10:45:26;2.10;;;0.50;;
12141;SDS011;6134;59.284;18.022;2023-02-28T10:47:58;0.60;;;0.50;;
12141;SDS011;6134;59.284;18.022;2023-02-28T10:50:29;1.02;;;0.47;;
12141;SDS011;6134;59.284;18.022;2023-02-28T10:53:17;1.45;;;0.60;;
12141;SDS011;6134;59.284;18.022;2023-02-28T10:56:01;0.75;;;0.43;;
12141;SDS011;6134;59.284;18.022;2023-02-28T10:58:31;0.40;;;0.40;;
12141;SDS011;6134;59.284;18.022;2023-02-28T11:01:00;0.55;;;0.35;;
12141;SDS011;6134;59.284;18.022;2023-02-28T11:03:31;0.50;;;0.50;;
12141;SDS011;6134;59.284;18.022;2023-02-28T11:06:05;1.65;;;0.55;;
12141;SDS011;6134;59.284;18.022;2023-02-28T11:08:39;0.60;;;0.55;;
12141;SDS011;6134;59.284;18.022;2023-02-28T11:11:11;2.35;;;0.47;;
12141;SDS011;6134;59.284;18.022;2023-02-28T11:13:40;0.60;;;0.60;;
12141;SDS011;6134;59.284;18.022;2023-02-28T11:16:10;0.85;;;0.57;;
12141;SDS011;6134;59.284;18.022;2023-02-28T11:18:42;2.20;;;0.60;;
12141;SDS011;6134;59.284;18.022;2023-02-28T11:21:15;1.27;;;0.63;;
12141;SDS011;6134;59.284;18.022;2023-02-28T11:23:45;1.35;;;0.82;;
12141;SDS011;6134;59.284;18.022;2023-02-28T11:26:14;2.78;;;0.93;;
12141;SDS011;6134;59.284;18.022;2023-02-28T11:28:43;1.27;;;0.73;;
12141;SDS011;6134;59.284;18.022;2023-02-28T11:31:16;2.30;;;0.80;;
12141;SDS011;6134;59.284;18.022;2023-02-28T11:33:48;1.75;;;0.80;;
12141;SDS011;6134;59.284;18.022;2023-02-28T11:36:19;1.38;;;0.60;;
12141;SDS011;6134;59.284;18.022;2023-02-28T11:38:48;2.22;;;0.75;;
12141;SDS011;6134;59.284;18.022;2023-02-28T11:41:20;1.33;;;0.70;;
12141;SDS011;6134;59.284;18.022;2023-02-28T11:46:36;1.77;;;0.80;;
12141;SDS011;6134;59.284;18.022;2023-02-28T11:49:12;1.33;;;0.88;;
12141;SDS011;6134;59.284;18.022;2023-02-28T11:51:45;3.58;;;1.17;;
12141;SDS011;6134;59.284;18.022;2023-02-28T11:54:24;2.33;;;1.00;;
12141;SDS011;6134;59.284;18.022;2023-02-28T11:56:57;1.38;;;1.02;;
12141;SDS011;6134;59.284;18.022;2023-02-28T12:02:22;1.55;;;0.80;;
12141;SDS011;6134;59.284;18.022;2023-02-28T12:07:37;1.13;;;0.88;;
12141;SDS011;6134;59.284;18.022;2023-02-28T12:10:11;0.70;;;0.70;;
12141;SDS011;6134;59.284;18.022;2023-02-28T12:12:45;2.70;;;0.73;;
12141;SDS011;6134;59.284;18.022;2023-02-28T12:15:22;2.15;;;0.90;;
12141;SDS011;6134;59.284;18.022;2023-02-28T12:18:07;3.08;;;1.00;;
12141;SDS011;6134;59.284;18.022;2023-02-28T12:20:41;1.15;;;1.05;;
12141;SDS011;6134;59.284;18.022;2023-02-28T12:26:03;1.48;;;0.90;;
12141;SDS011;6134;59.284;18.022;2023-02-28T12:28:34;1.23;;;0.90;;
12141;SDS011;6134;59.284;18.022;2023-02-28T12:31:04;1.80;;;0.80;;
12141;SDS011;6134;59.284;18.022;2023-02-28T12:33:34;1.65;;;0.70;;
12141;SDS011;6134;59.284;18.022;2023-02-28T12:36:04;3.72;;;0.60;;
12141;SDS011;6134;59.284;18.022;2023-02-28T12:38:34;1.63;;;0.70;;
12141;SDS011;6134;59.284;18.022;2023-02-28T12:41:08;0.73;;;0.50;;
12141;SDS011;6134;59.284;18.022;2023-02-28T12:43:40;1.70;;;0.63;;
12141;SDS011;6134;59.284;18.022;2023-02-28T12:46:11;1.00;;;0.60;;
12141;SDS011;6134;59.284;18.022;2023-02-28T12:48:42;0.70;;;0.70;;
12141;SDS011;6134;59.284;18.022;2023-02-28T12:51:12;0.73;;;0.70;;
12141;SDS011;6134;59.284;18.022;2023-02-28T12:53:47;1.02;;;0.70;;
12141;SDS011;6134;59.284;18.022;2023-02-28T12:56:22;0.63;;;0.63;;
12141;SDS011;6134;59.284;18.022;2023-02-28T12:58:55;0.60;;;0.52;;
12141;SDS011;6134;59.284;18.022;2023-02-28T13:01:36;2.67;;;0.70;;
12141;SDS011;6134;59.284;18.022;2023-02-28T13:04:23;1.80;;;1.23;;
12141;SDS011;6134;59.284;18.022;2023-02-28T13:07:02;1.17;;;1.08;;
12141;SDS011;6134;59.284;18.022;2023-02-28T13:09:33;1.67;;;0.60;;
12141;SDS011;6134;59.284;18.022;2023-02-28T13:12:04;1.95;;;0.80;;
12141;SDS011;6134;59.284;18.022;2023-02-28T13:14:40;2.92;;;0.70;;
12141;SDS011;6134;59.284;18.022;2023-02-28T13:17:10;3.50;;;0.55;;
12141;SDS011;6134;59.284;18.022;2023-02-28T13:19:40;0.85;;;0.85;;
12141;SDS011;6134;59.284;18.022;2023-02-28T13:22:16;0.55;;;0.50;;
12141;SDS011;6134;59.284;18.022;2023-02-28T13:24:48;0.50;;;0.50;;
12141;SDS011;6134;59.284;18.022;2023-02-28T13:27:24;1.33;;;0.60;;
12141;SDS011;6134;59.284;18.022;2023-02-28T13:29:59;1.42;;;0.50;;
12141;SDS011;6134;59.284;18.022;2023-02-28T13:32:33;1.15;;;0.80;;
12141;SDS011;6134;59.284;18.022;2023-02-28T13:35:12;0.63;;;0.47;;
12141;SDS011;6134;59.284;18.022;2023-02-28T13:37:44;4.50;;;0.60;;
12141;SDS011;6134;59.284;18.022;2023-02-28T13:40:31;2.33;;;0.60;;
12141;SDS011;6134;59.284;18.022;2023-02-28T13:43:08;0.60;;;0.50;;
12141;SDS011;6134;59.284;18.022;2023-02-28T13:45:36;1.42;;;0.60;;
12141;SDS011;6134;59.284;18.022;2023-02-28T13:48:15;1.40;;;0.50;;
12141;SDS011;6134;59.284;18.022;2023-02-28T13:50:47;2.50;;;0.52;;
12141;SDS011;6134;59.284;18.022;2023-02-28T13:56:05;1.75;;;0.77;;
12141;SDS011;6134;59.284;18.022;2023-02-28T13:58:43;1.13;;;0.60;;
12141;SDS011;6134;59.284;18.022;2023-02-28T14:06:47;1.83;;;0.70;;
12141;SDS011;6134;59.284;18.022;2023-02-28T14:09:18;1.50;;;0.88;;
12141;SDS011;6134;59.284;18.022;2023-02-28T14:11:50;2.08;;;0.65;;
12141;SDS011;6134;59.284;18.022;2023-02-28T14:17:12;0.55;;;0.55;;
12141;SDS011;6134;59.284;18.022;2023-02-28T14:19:43;0.88;;;0.88;;
12141;SDS011;6134;59.284;18.022;2023-02-28T14:22:18;0.95;;;0.60;;
12141;SDS011;6134;59.284;18.022;2023-02-28T14:24:59;3.10;;;0.77;;
12141;SDS011;6134;59.284;18.022;2023-02-28T14:27:35;3.90;;;0.90;;
12141;SDS011;6134;59.284;18.022;2023-02-28T14:30:19;2.70;;;1.08;;
12141;SDS011;6134;59.284;18.022;2023-02-28T14:33:00;4.85;;;1.02;;
12141;SDS011;6134;59.284;18.022;2023-02-28T14:35:39;3.15;;;1.15;;
12141;SDS011;6134;59.284;18.022;2023-02-28T14:38:14;4.10;;;0.90;;
12141;SDS011;6134;59.284;18.022;2023-02-28T14:40:43;3.17;;;1.25;;
12141;SDS011;6134;59.284;18.022;2023-02-28T14:43:21;1.13;;;0.98;;
12141;SDS011;6134;59.284;18.022;2023-02-28T14:45:50;2.13;;;1.05;;
12141;SDS011;6134;59.284;18.022;2023-02-28T14:48:21;3.25;;;1.00;;
12141;SDS011;6134;59.284;18.022;2023-02-28T14:50:52;3.08;;;1.00;;
12141;SDS011;6134;59.284;18.022;2023-02-28T14:53:22;2.38;;;1.02;;
12141;SDS011;6134;59.284;18.022;2023-02-28T14:55:51;3.42;;;1.40;;
12141;SDS011;6134;59.284;18.022;2023-02-28T14:58:22;3.28;;;1.20;;
12141;SDS011;6134;59.284;18.022;2023-02-28T15:00:51;3.85;;;1.33;;
12141;SDS011;6134;59.284;18.022;2023-02-28T15:03:23;3.25;;;1.67;;
12141;SDS011;6134;59.284;18.022;2023-02-28T15:05:52;1.80;;;1.15;;
12141;SDS011;6134;59.284;18.022;2023-02-28T15:08:22;5.03;;;1.20;;
12141;SDS011;6134;59.284;18.022;2023-02-28T15:10:51;2.03;;;1.13;;
12141;SDS011;6134;59.284;18.022;2023-02-28T15:13:21;3.40;;;0.70;;
12141;SDS011;6134;59.284;18.022;2023-02-28T15:15:52;4.25;;;0.90;;
12141;SDS011;6134;59.284;18.022;2023-02-28T15:18:33;1.42;;;0.90;;
12141;SDS011;6134;59.284;18.022;2023-02-28T15:21:05;5.20;;;1.48;;
12141;SDS011;6134;59.284;18.022;2023-02-28T15:23:34;2.45;;;1.10;;
12141;SDS011;6134;59.284;18.022;2023-02-28T15:26:05;5.35;;;1.25;;
12141;SDS011;6134;59.284;18.022;2023-02-28T15:28:34;0.80;;;0.70;;
12141;SDS011;6134;59.284;18.022;2023-02-28T15:31:03;4.55;;;0.85;;
12141;SDS011;6134;59.284;18.022;2023-02-28T15:33:52;1.77;;;0.88;;
12141;SDS011;6134;59.284;18.022;2023-02-28T15:36:23;5.35;;;1.00;;
12141;SDS011;6134;59.284;18.022;2023-02-28T15:38:54;2.05;;;0.80;;
12141;SDS011;6134;59.284;18.022;2023-02-28T15:41:36;3.40;;;0.80;;
12141;SDS011;6134;59.284;18.022;2023-02-28T15:44:23;1.65;;;0.82;;